sensor_id;sensor_type;location;lat;lon;timestamp;P1;durP1;ratioP1;P2;durP2;ratioP2
48092;SDS011;33873;47.442;18.902;2023-09-12T00:01:37;5.70;;;2.92;;
48092;SDS011;33873;47.442;18.902;2023-09-12T00:04:05;6.87;;;3.42;;
48092;SDS011;33873;47.442;18.902;2023-09-12T00:06:33;6.20;;;2.53;;
48092;SDS011;33873;47.442;18.902;2023-09-12T00:09:01;8.05;;;4.15;;
48092;SDS011;33873;47.442;18.902;2023-09-12T00:11:29;6.97;;;3.08;;
48092;SDS011;33873;47.442;18.902;2023-09-12T00:13:56;9.20;;;4.90;;
48092;SDS011;33873;47.442;18.902;2023-09-12T00:16:26;19.42;;;3.22;;
48092;SDS011;33873;47.442;18.902;2023-09-12T00:18:54;7.93;;;4.20;;
48092;SDS011;33873;47.442;18.902;2023-09-12T00:21:22;6.45;;;3.83;;
48092;SDS011;33873;47.442;18.902;2023-09-12T00:23:49;7.65;;;3.95;;
48092;SDS011;33873;47.442;18.902;2023-09-12T00:26:17;5.80;;;3.47;;
48092;SDS011;33873;47.442;18.902;2023-09-12T00:28:45;9.02;;;3.78;;
48092;SDS011;33873;47.442;18.902;2023-09-12T00:31:12;9.15;;;4.47;;
48092;SDS011;33873;47.442;18.902;2023-09-12T00:33:41;8.00;;;4.53;;
48092;SDS011;33873;47.442;18.902;2023-09-12T00:36:09;11.30;;;3.28;;
48092;SDS011;33873;47.442;18.902;2023-09-12T00:38:36;11.10;;;3.22;;
48092;SDS011;33873;47.442;18.902;2023-09-12T00:41:04;7.20;;;3.45;;
48092;SDS011;33873;47.442;18.902;2023-09-12T00:43:32;9.38;;;4.37;;
48092;SDS011;33873;47.442;18.902;2023-09-12T00:46:00;7.15;;;3.55;;
48092;SDS011;33873;47.442;18.902;2023-09-12T00:48:29;7.53;;;3.45;;
48092;SDS011;33873;47.442;18.902;2023-09-12T00:50:56;8.57;;;4.28;;
48092;SDS011;33873;47.442;18.902;2023-09-12T00:53:24;8.40;;;3.95;;
48092;SDS011;33873;47.442;18.902;2023-09-12T00:55:54;10.30;;;3.53;;
48092;SDS011;33873;47.442;18.902;2023-09-12T00:58:24;9.77;;;3.33;;
48092;SDS011;33873;47.442;18.902;2023-09-12T01:00:52;5.30;;;3.08;;
48092;SDS011;33873;47.442;18.902;2023-09-12T01:03:20;9.35;;;4.93;;
48092;SDS011;33873;47.442;18.902;2023-09-12T01:05:48;7.65;;;3.95;;
48092;SDS011;33873;47.442;18.902;2023-09-12T01:08:16;7.05;;;3.65;;
48092;SDS011;33873;47.442;18.902;2023-09-12T01:10:44;6.35;;;3.08;;
48092;SDS011;33873;47.442;18.902;2023-09-12T01:13:13;11.10;;;4.40;;
48092;SDS011;33873;47.442;18.902;2023-09-12T01:15:41;19.35;;;5.35;;
48092;SDS011;33873;47.442;18.902;2023-09-12T01:18:09;5.18;;;2.87;;
48092;SDS011;33873;47.442;18.902;2023-09-12T01:20:37;6.65;;;3.12;;
48092;SDS011;33873;47.442;18.902;2023-09-12T01:26:04;5.68;;;2.45;;
48092;SDS011;33873;47.442;18.902;2023-09-12T01:28:42;5.40;;;2.90;;
48092;SDS011;33873;47.442;18.902;2023-09-12T01:31:12;4.70;;;2.72;;
48092;SDS011;33873;47.442;18.902;2023-09-12T01:33:40;7.18;;;3.92;;
48092;SDS011;33873;47.442;18.902;2023-09-12T01:36:09;6.12;;;3.40;;
48092;SDS011;33873;47.442;18.902;2023-09-12T01:38:38;6.25;;;3.00;;
48092;SDS011;33873;47.442;18.902;2023-09-12T01:41:06;6.65;;;3.72;;
48092;SDS011;33873;47.442;18.902;2023-09-12T01:43:35;11.75;;;3.70;;
48092;SDS011;33873;47.442;18.902;2023-09-12T01:46:04;7.15;;;3.42;;
48092;SDS011;33873;47.442;18.902;2023-09-12T01:48:32;5.32;;;3.03;;
48092;SDS011;33873;47.442;18.902;2023-09-12T01:51:01;6.32;;;3.03;;
48092;SDS011;33873;47.442;18.902;2023-09-12T01:53:29;7.82;;;3.35;;
48092;SDS011;33873;47.442;18.902;2023-09-12T01:55:58;10.50;;;2.65;;
48092;SDS011;33873;47.442;18.902;2023-09-12T01:58:27;7.45;;;4.10;;
48092;SDS011;33873;47.442;18.902;2023-09-12T02:00:55;6.35;;;3.28;;
48092;SDS011;33873;47.442;18.902;2023-09-12T02:03:24;6.72;;;3.97;;
48092;SDS011;33873;47.442;18.902;2023-09-12T02:05:52;7.37;;;3.87;;
48092;SDS011;33873;47.442;18.902;2023-09-12T02:08:19;8.15;;;4.57;;
48092;SDS011;33873;47.442;18.902;2023-09-12T02:10:47;13.65;;;5.43;;
48092;SDS011;33873;47.442;18.902;2023-09-12T02:13:15;7.37;;;3.83;;
48092;SDS011;33873;47.442;18.902;2023-09-12T02:15:42;11.50;;;4.18;;
48092;SDS011;33873;47.442;18.902;2023-09-12T02:18:10;6.40;;;3.40;;
48092;SDS011;33873;47.442;18.902;2023-09-12T02:20:39;7.82;;;3.33;;
48092;SDS011;33873;47.442;18.902;2023-09-12T02:23:08;9.23;;;3.67;;
48092;SDS011;33873;47.442;18.902;2023-09-12T02:25:36;7.20;;;3.15;;
48092;SDS011;33873;47.442;18.902;2023-09-12T02:28:04;6.10;;;3.03;;
48092;SDS011;33873;47.442;18.902;2023-09-12T02:30:32;7.03;;;4.05;;
48092;SDS011;33873;47.442;18.902;2023-09-12T02:33:00;12.57;;;2.85;;
48092;SDS011;33873;47.442;18.902;2023-09-12T02:35:28;7.35;;;3.60;;
48092;SDS011;33873;47.442;18.902;2023-09-12T02:37:56;5.43;;;3.12;;
48092;SDS011;33873;47.442;18.902;2023-09-12T02:40:24;4.62;;;3.08;;
48092;SDS011;33873;47.442;18.902;2023-09-12T02:42:52;12.55;;;3.15;;
48092;SDS011;33873;47.442;18.902;2023-09-12T02:45:19;8.75;;;4.35;;
48092;SDS011;33873;47.442;18.902;2023-09-12T02:47:47;5.45;;;3.20;;
48092;SDS011;33873;47.442;18.902;2023-09-12T02:50:15;6.18;;;3.10;;
48092;SDS011;33873;47.442;18.902;2023-09-12T02:52:42;6.93;;;3.87;;
48092;SDS011;33873;47.442;18.902;2023-09-12T02:55:10;12.07;;;5.60;;
48092;SDS011;33873;47.442;18.902;2023-09-12T02:57:38;10.35;;;3.67;;
48092;SDS011;33873;47.442;18.902;2023-09-12T03:00:06;11.45;;;3.28;;
48092;SDS011;33873;47.442;18.902;2023-09-12T03:02:36;8.70;;;3.83;;
48092;SDS011;33873;47.442;18.902;2023-09-12T03:05:04;7.47;;;3.15;;
48092;SDS011;33873;47.442;18.902;2023-09-12T03:07:32;6.25;;;3.50;;
48092;SDS011;33873;47.442;18.902;2023-09-12T03:09:59;7.37;;;3.50;;
48092;SDS011;33873;47.442;18.902;2023-09-12T03:12:27;7.00;;;3.83;;
48092;SDS011;33873;47.442;18.902;2023-09-12T03:14:56;5.87;;;2.87;;
48092;SDS011;33873;47.442;18.902;2023-09-12T03:17:23;9.93;;;4.45;;
48092;SDS011;33873;47.442;18.902;2023-09-12T03:19:51;6.53;;;3.37;;
48092;SDS011;33873;47.442;18.902;2023-09-12T03:22:19;6.47;;;3.85;;
48092;SDS011;33873;47.442;18.902;2023-09-12T03:24:47;5.43;;;2.92;;
48092;SDS011;33873;47.442;18.902;2023-09-12T03:27:15;11.15;;;3.97;;
48092;SDS011;33873;47.442;18.902;2023-09-12T03:29:46;11.65;;;3.40;;
48092;SDS011;33873;47.442;18.902;2023-09-12T03:32:14;8.38;;;3.78;;
48092;SDS011;33873;47.442;18.902;2023-09-12T03:34:42;11.63;;;3.83;;
48092;SDS011;33873;47.442;18.902;2023-09-12T03:37:09;6.70;;;3.60;;
48092;SDS011;33873;47.442;18.902;2023-09-12T03:39:37;7.10;;;3.55;;
48092;SDS011;33873;47.442;18.902;2023-09-12T03:42:05;6.72;;;3.30;;
48092;SDS011;33873;47.442;18.902;2023-09-12T03:44:33;8.05;;;3.15;;
48092;SDS011;33873;47.442;18.902;2023-09-12T03:47:01;5.07;;;3.53;;
48092;SDS011;33873;47.442;18.902;2023-09-12T03:49:28;8.02;;;3.42;;
48092;SDS011;33873;47.442;18.902;2023-09-12T03:51:56;8.70;;;4.05;;
48092;SDS011;33873;47.442;18.902;2023-09-12T03:54:25;8.25;;;4.07;;
48092;SDS011;33873;47.442;18.902;2023-09-12T03:56:53;8.15;;;5.45;;
48092;SDS011;33873;47.442;18.902;2023-09-12T03:59:21;6.85;;;3.35;;
48092;SDS011;33873;47.442;18.902;2023-09-12T04:01:49;11.80;;;5.90;;
48092;SDS011;33873;47.442;18.902;2023-09-12T04:04:17;4.22;;;2.58;;
48092;SDS011;33873;47.442;18.902;2023-09-12T04:06:44;9.48;;;3.65;;
48092;SDS011;33873;47.442;18.902;2023-09-12T04:09:12;9.60;;;4.28;;
48092;SDS011;33873;47.442;18.902;2023-09-12T04:11:40;14.13;;;4.87;;
48092;SDS011;33873;47.442;18.902;2023-09-12T04:14:14;10.18;;;4.47;;
48092;SDS011;33873;47.442;18.902;2023-09-12T04:16:42;6.10;;;2.95;;
48092;SDS011;33873;47.442;18.902;2023-09-12T04:19:10;12.52;;;3.47;;
48092;SDS011;33873;47.442;18.902;2023-09-12T04:21:37;7.32;;;3.72;;
48092;SDS011;33873;47.442;18.902;2023-09-12T04:24:06;7.40;;;3.22;;
48092;SDS011;33873;47.442;18.902;2023-09-12T04:26:35;14.90;;;4.53;;
48092;SDS011;33873;47.442;18.902;2023-09-12T04:29:02;5.60;;;3.70;;
48092;SDS011;33873;47.442;18.902;2023-09-12T04:31:30;5.30;;;3.45;;
48092;SDS011;33873;47.442;18.902;2023-09-12T04:33:58;8.57;;;5.00;;
48092;SDS011;33873;47.442;18.902;2023-09-12T04:36:25;7.60;;;4.15;;
48092;SDS011;33873;47.442;18.902;2023-09-12T04:38:53;18.65;;;3.17;;
48092;SDS011;33873;47.442;18.902;2023-09-12T04:41:21;7.43;;;3.28;;
48092;SDS011;33873;47.442;18.902;2023-09-12T04:43:48;7.22;;;3.72;;
48092;SDS011;33873;47.442;18.902;2023-09-12T04:46:16;5.00;;;3.72;;
48092;SDS011;33873;47.442;18.902;2023-09-12T04:48:44;9.93;;;5.53;;
48092;SDS011;33873;47.442;18.902;2023-09-12T04:51:12;14.70;;;4.25;;
48092;SDS011;33873;47.442;18.902;2023-09-12T04:53:40;15.32;;;5.90;;
48092;SDS011;33873;47.442;18.902;2023-09-12T04:56:07;6.85;;;4.90;;
48092;SDS011;33873;47.442;18.902;2023-09-12T04:58:37;9.77;;;4.95;;
48092;SDS011;33873;47.442;18.902;2023-09-12T05:01:05;9.10;;;3.03;;
48092;SDS011;33873;47.442;18.902;2023-09-12T05:03:33;5.47;;;3.78;;
48092;SDS011;33873;47.442;18.902;2023-09-12T05:06:01;7.50;;;3.08;;
48092;SDS011;33873;47.442;18.902;2023-09-12T05:08:29;6.82;;;3.17;;
48092;SDS011;33873;47.442;18.902;2023-09-12T05:10:57;7.18;;;4.28;;
48092;SDS011;33873;47.442;18.902;2023-09-12T05:13:25;7.50;;;3.17;;
48092;SDS011;33873;47.442;18.902;2023-09-12T05:15:52;6.47;;;4.12;;
48092;SDS011;33873;47.442;18.902;2023-09-12T05:18:20;10.35;;;3.67;;
48092;SDS011;33873;47.442;18.902;2023-09-12T05:20:48;7.35;;;3.45;;
48092;SDS011;33873;47.442;18.902;2023-09-12T05:23:17;6.40;;;3.12;;
48092;SDS011;33873;47.442;18.902;2023-09-12T05:25:44;7.25;;;3.80;;
48092;SDS011;33873;47.442;18.902;2023-09-12T05:28:12;8.38;;;4.25;;
48092;SDS011;33873;47.442;18.902;2023-09-12T05:30:44;5.55;;;3.67;;
48092;SDS011;33873;47.442;18.902;2023-09-12T05:33:11;17.67;;;5.80;;
48092;SDS011;33873;47.442;18.902;2023-09-12T05:35:41;10.80;;;4.18;;
48092;SDS011;33873;47.442;18.902;2023-09-12T05:38:09;5.80;;;3.92;;
48092;SDS011;33873;47.442;18.902;2023-09-12T05:40:37;11.77;;;4.43;;
48092;SDS011;33873;47.442;18.902;2023-09-12T05:43:05;10.82;;;4.28;;
48092;SDS011;33873;47.442;18.902;2023-09-12T05:45:33;12.95;;;4.22;;
48092;SDS011;33873;47.442;18.902;2023-09-12T05:48:01;10.05;;;3.97;;
48092;SDS011;33873;47.442;18.902;2023-09-12T05:50:31;7.70;;;3.60;;
48092;SDS011;33873;47.442;18.902;2023-09-12T05:52:58;5.85;;;2.90;;
48092;SDS011;33873;47.442;18.902;2023-09-12T05:55:26;6.37;;;3.65;;
48092;SDS011;33873;47.442;18.902;2023-09-12T05:57:54;8.63;;;4.30;;
48092;SDS011;33873;47.442;18.902;2023-09-12T06:00:22;9.20;;;4.72;;
48092;SDS011;33873;47.442;18.902;2023-09-12T06:02:50;6.22;;;3.97;;
48092;SDS011;33873;47.442;18.902;2023-09-12T06:05:17;8.30;;;5.97;;
48092;SDS011;33873;47.442;18.902;2023-09-12T06:07:46;11.12;;;4.25;;
48092;SDS011;33873;47.442;18.902;2023-09-12T06:10:14;6.37;;;3.20;;
48092;SDS011;33873;47.442;18.902;2023-09-12T06:12:42;7.62;;;4.32;;
48092;SDS011;33873;47.442;18.902;2023-09-12T06:15:09;7.20;;;4.07;;
48092;SDS011;33873;47.442;18.902;2023-09-12T06:17:37;11.20;;;4.97;;
48092;SDS011;33873;47.442;18.902;2023-09-12T06:20:05;7.85;;;3.90;;
48092;SDS011;33873;47.442;18.902;2023-09-12T06:22:34;12.40;;;3.92;;
48092;SDS011;33873;47.442;18.902;2023-09-12T06:25:03;6.78;;;4.15;;
48092;SDS011;33873;47.442;18.902;2023-09-12T06:27:32;10.52;;;4.55;;
48092;SDS011;33873;47.442;18.902;2023-09-12T06:29:59;9.05;;;3.62;;
48092;SDS011;33873;47.442;18.902;2023-09-12T06:32:28;6.75;;;3.80;;
48092;SDS011;33873;47.442;18.902;2023-09-12T06:34:55;7.82;;;4.07;;
48092;SDS011;33873;47.442;18.902;2023-09-12T06:37:23;8.45;;;5.25;;
48092;SDS011;33873;47.442;18.902;2023-09-12T06:39:51;11.55;;;6.60;;
48092;SDS011;33873;47.442;18.902;2023-09-12T06:42:19;21.12;;;4.78;;
48092;SDS011;33873;47.442;18.902;2023-09-12T06:44:46;15.10;;;4.78;;
48092;SDS011;33873;47.442;18.902;2023-09-12T06:47:14;11.35;;;4.97;;
48092;SDS011;33873;47.442;18.902;2023-09-12T06:49:42;8.50;;;4.37;;
48092;SDS011;33873;47.442;18.902;2023-09-12T06:52:11;10.73;;;4.32;;
48092;SDS011;33873;47.442;18.902;2023-09-12T06:54:38;7.90;;;3.95;;
48092;SDS011;33873;47.442;18.902;2023-09-12T06:57:06;10.88;;;4.90;;
48092;SDS011;33873;47.442;18.902;2023-09-12T06:59:34;11.82;;;5.97;;
48092;SDS011;33873;47.442;18.902;2023-09-12T07:02:02;12.23;;;5.68;;
48092;SDS011;33873;47.442;18.902;2023-09-12T07:04:29;10.82;;;4.85;;
48092;SDS011;33873;47.442;18.902;2023-09-12T07:06:57;7.53;;;3.87;;
48092;SDS011;33873;47.442;18.902;2023-09-12T07:09:25;8.80;;;4.93;;
48092;SDS011;33873;47.442;18.902;2023-09-12T07:11:52;9.77;;;5.30;;
48092;SDS011;33873;47.442;18.902;2023-09-12T07:14:20;11.23;;;6.25;;
48092;SDS011;33873;47.442;18.902;2023-09-12T07:16:49;8.00;;;4.57;;
48092;SDS011;33873;47.442;18.902;2023-09-12T07:19:16;8.18;;;4.97;;
48092;SDS011;33873;47.442;18.902;2023-09-12T07:21:44;9.52;;;4.47;;
48092;SDS011;33873;47.442;18.902;2023-09-12T07:24:12;11.82;;;5.32;;
48092;SDS011;33873;47.442;18.902;2023-09-12T07:26:40;13.95;;;4.82;;
48092;SDS011;33873;47.442;18.902;2023-09-12T07:29:07;7.07;;;4.00;;
48092;SDS011;33873;47.442;18.902;2023-09-12T07:31:35;12.15;;;5.78;;
48092;SDS011;33873;47.442;18.902;2023-09-12T07:34:03;14.10;;;5.65;;
48092;SDS011;33873;47.442;18.902;2023-09-12T07:36:35;9.45;;;5.50;;
48092;SDS011;33873;47.442;18.902;2023-09-12T07:39:03;12.13;;;4.87;;
48092;SDS011;33873;47.442;18.902;2023-09-12T07:41:31;14.25;;;6.35;;
48092;SDS011;33873;47.442;18.902;2023-09-12T07:43:59;10.50;;;5.57;;
48092;SDS011;33873;47.442;18.902;2023-09-12T07:46:29;9.00;;;5.22;;
48092;SDS011;33873;47.442;18.902;2023-09-12T07:48:56;12.02;;;6.05;;
48092;SDS011;33873;47.442;18.902;2023-09-12T07:51:25;12.85;;;5.22;;
48092;SDS011;33873;47.442;18.902;2023-09-12T07:53:53;10.02;;;5.47;;
48092;SDS011;33873;47.442;18.902;2023-09-12T07:56:20;11.63;;;6.68;;
48092;SDS011;33873;47.442;18.902;2023-09-12T07:58:48;23.75;;;5.90;;
48092;SDS011;33873;47.442;18.902;2023-09-12T08:01:16;15.23;;;5.28;;
48092;SDS011;33873;47.442;18.902;2023-09-12T08:03:44;14.43;;;5.97;;
48092;SDS011;33873;47.442;18.902;2023-09-12T08:06:12;11.05;;;5.72;;
48092;SDS011;33873;47.442;18.902;2023-09-12T08:08:40;12.32;;;6.55;;
48092;SDS011;33873;47.442;18.902;2023-09-12T08:11:12;15.25;;;5.62;;
48092;SDS011;33873;47.442;18.902;2023-09-12T08:13:39;14.32;;;5.80;;
48092;SDS011;33873;47.442;18.902;2023-09-12T08:16:08;13.90;;;6.70;;
48092;SDS011;33873;47.442;18.902;2023-09-12T08:18:36;11.52;;;6.05;;
48092;SDS011;33873;47.442;18.902;2023-09-12T08:21:04;11.95;;;6.32;;
48092;SDS011;33873;47.442;18.902;2023-09-12T08:23:31;14.20;;;6.35;;
48092;SDS011;33873;47.442;18.902;2023-09-12T08:25:59;10.52;;;5.47;;
48092;SDS011;33873;47.442;18.902;2023-09-12T08:28:27;17.08;;;7.40;;
48092;SDS011;33873;47.442;18.902;2023-09-12T08:30:54;10.70;;;5.80;;
48092;SDS011;33873;47.442;18.902;2023-09-12T08:33:22;10.00;;;5.05;;
48092;SDS011;33873;47.442;18.902;2023-09-12T08:35:52;10.77;;;5.40;;
48092;SDS011;33873;47.442;18.902;2023-09-12T08:38:20;15.65;;;5.78;;
48092;SDS011;33873;47.442;18.902;2023-09-12T08:40:51;10.88;;;5.85;;
48092;SDS011;33873;47.442;18.902;2023-09-12T08:43:19;16.52;;;6.55;;
48092;SDS011;33873;47.442;18.902;2023-09-12T08:45:47;15.30;;;6.28;;
48092;SDS011;33873;47.442;18.902;2023-09-12T08:48:15;10.43;;;5.82;;
48092;SDS011;33873;47.442;18.902;2023-09-12T08:50:44;18.87;;;5.47;;
48092;SDS011;33873;47.442;18.902;2023-09-12T08:53:14;16.52;;;6.20;;
48092;SDS011;33873;47.442;18.902;2023-09-12T08:55:42;9.50;;;5.57;;
48092;SDS011;33873;47.442;18.902;2023-09-12T08:58:10;12.27;;;3.72;;
48092;SDS011;33873;47.442;18.902;2023-09-12T09:00:38;10.20;;;5.30;;
48092;SDS011;33873;47.442;18.902;2023-09-12T09:03:06;9.45;;;5.20;;
48092;SDS011;33873;47.442;18.902;2023-09-12T09:05:34;8.77;;;4.47;;
48092;SDS011;33873;47.442;18.902;2023-09-12T09:08:03;15.35;;;6.30;;
48092;SDS011;33873;47.442;18.902;2023-09-12T09:10:30;20.77;;;6.35;;
48092;SDS011;33873;47.442;18.902;2023-09-12T09:13:17;8.95;;;5.15;;
48092;SDS011;33873;47.442;18.902;2023-09-12T09:15:46;11.63;;;5.12;;
48092;SDS011;33873;47.442;18.902;2023-09-12T09:18:14;12.07;;;5.70;;
48092;SDS011;33873;47.442;18.902;2023-09-12T09:20:42;9.15;;;5.15;;
48092;SDS011;33873;47.442;18.902;2023-09-12T09:23:12;11.70;;;5.00;;
48092;SDS011;33873;47.442;18.902;2023-09-12T09:25:41;12.20;;;5.78;;
48092;SDS011;33873;47.442;18.902;2023-09-12T09:28:19;11.88;;;5.85;;
48092;SDS011;33873;47.442;18.902;2023-09-12T09:30:48;11.77;;;5.75;;
48092;SDS011;33873;47.442;18.902;2023-09-12T09:33:19;14.43;;;5.05;;
48092;SDS011;33873;47.442;18.902;2023-09-12T09:35:47;16.15;;;5.43;;
48092;SDS011;33873;47.442;18.902;2023-09-12T09:38:16;10.60;;;4.75;;
48092;SDS011;33873;47.442;18.902;2023-09-12T09:40:46;8.43;;;4.72;;
48092;SDS011;33873;47.442;18.902;2023-09-12T09:43:18;11.88;;;4.80;;
48092;SDS011;33873;47.442;18.902;2023-09-12T09:45:47;8.52;;;4.40;;
48092;SDS011;33873;47.442;18.902;2023-09-12T09:48:21;9.95;;;5.32;;
48092;SDS011;33873;47.442;18.902;2023-09-12T09:50:59;8.60;;;4.78;;
48092;SDS011;33873;47.442;18.902;2023-09-12T09:53:30;8.55;;;5.20;;
48092;SDS011;33873;47.442;18.902;2023-09-12T09:56:10;7.00;;;4.37;;
48092;SDS011;33873;47.442;18.902;2023-09-12T09:58:48;10.55;;;6.15;;
48092;SDS011;33873;47.442;18.902;2023-09-12T10:01:20;8.63;;;4.87;;
48092;SDS011;33873;47.442;18.902;2023-09-12T10:03:50;15.13;;;5.68;;
48092;SDS011;33873;47.442;18.902;2023-09-12T10:06:18;11.68;;;5.72;;
48092;SDS011;33873;47.442;18.902;2023-09-12T10:08:50;7.30;;;4.62;;
48092;SDS011;33873;47.442;18.902;2023-09-12T10:11:23;14.45;;;5.93;;
48092;SDS011;33873;47.442;18.902;2023-09-12T10:19:23;15.90;;;5.82;;
48092;SDS011;33873;47.442;18.902;2023-09-12T10:24:34;11.02;;;5.60;;
48092;SDS011;33873;47.442;18.902;2023-09-12T10:27:03;15.32;;;5.82;;
48092;SDS011;33873;47.442;18.902;2023-09-12T10:29:31;16.60;;;5.62;;
48092;SDS011;33873;47.442;18.902;2023-09-12T10:31:59;13.95;;;5.80;;
48092;SDS011;33873;47.442;18.902;2023-09-12T10:34:27;13.15;;;5.15;;
48092;SDS011;33873;47.442;18.902;2023-09-12T10:36:57;12.73;;;5.18;;
48092;SDS011;33873;47.442;18.902;2023-09-12T10:39:27;11.05;;;5.10;;
48092;SDS011;33873;47.442;18.902;2023-09-12T10:41:56;17.40;;;5.50;;
48092;SDS011;33873;47.442;18.902;2023-09-12T10:44:25;9.23;;;5.00;;
48092;SDS011;33873;47.442;18.902;2023-09-12T10:46:53;12.32;;;4.78;;
48092;SDS011;33873;47.442;18.902;2023-09-12T10:49:21;9.68;;;5.05;;
48092;SDS011;33873;47.442;18.902;2023-09-12T10:51:51;11.07;;;5.78;;
48092;SDS011;33873;47.442;18.902;2023-09-12T10:54:26;13.93;;;5.10;;
48092;SDS011;33873;47.442;18.902;2023-09-12T10:57:09;10.02;;;5.40;;
48092;SDS011;33873;47.442;18.902;2023-09-12T11:02:39;8.65;;;5.12;;
48092;SDS011;33873;47.442;18.902;2023-09-12T11:07:59;7.70;;;4.62;;
48092;SDS011;33873;47.442;18.902;2023-09-12T11:10:27;9.73;;;4.95;;
48092;SDS011;33873;47.442;18.902;2023-09-12T11:12:58;10.27;;;5.18;;
48092;SDS011;33873;47.442;18.902;2023-09-12T11:15:27;11.12;;;4.30;;
48092;SDS011;33873;47.442;18.902;2023-09-12T11:18:05;7.82;;;4.30;;
48092;SDS011;33873;47.442;18.902;2023-09-12T11:20:49;12.90;;;4.62;;
48092;SDS011;33873;47.442;18.902;2023-09-12T11:23:20;7.70;;;4.75;;
48092;SDS011;33873;47.442;18.902;2023-09-12T11:25:48;10.75;;;4.53;;
48092;SDS011;33873;47.442;18.902;2023-09-12T11:28:16;12.05;;;5.20;;
48092;SDS011;33873;47.442;18.902;2023-09-12T11:30:56;9.25;;;4.35;;
48092;SDS011;33873;47.442;18.902;2023-09-12T11:33:27;10.43;;;4.30;;
48092;SDS011;33873;47.442;18.902;2023-09-12T11:35:55;10.13;;;4.68;;
48092;SDS011;33873;47.442;18.902;2023-09-12T11:38:26;13.55;;;4.53;;
48092;SDS011;33873;47.442;18.902;2023-09-12T11:40:55;11.93;;;4.60;;
48092;SDS011;33873;47.442;18.902;2023-09-12T11:43:24;11.68;;;4.85;;
48092;SDS011;33873;47.442;18.902;2023-09-12T11:45:52;10.50;;;5.18;;
48092;SDS011;33873;47.442;18.902;2023-09-12T11:48:22;14.07;;;4.82;;
48092;SDS011;33873;47.442;18.902;2023-09-12T11:50:51;11.15;;;4.15;;
48092;SDS011;33873;47.442;18.902;2023-09-12T11:53:26;10.57;;;4.03;;
48092;SDS011;33873;47.442;18.902;2023-09-12T11:55:58;7.55;;;4.30;;
48092;SDS011;33873;47.442;18.902;2023-09-12T11:58:27;10.55;;;4.60;;
48092;SDS011;33873;47.442;18.902;2023-09-12T12:00:55;9.60;;;4.10;;
48092;SDS011;33873;47.442;18.902;2023-09-12T12:03:25;13.10;;;4.57;;
48092;SDS011;33873;47.442;18.902;2023-09-12T12:05:54;10.45;;;4.30;;
48092;SDS011;33873;47.442;18.902;2023-09-12T12:08:23;14.55;;;5.20;;
48092;SDS011;33873;47.442;18.902;2023-09-12T12:10:53;13.65;;;4.80;;
48092;SDS011;33873;47.442;18.902;2023-09-12T12:13:22;13.00;;;4.90;;
48092;SDS011;33873;47.442;18.902;2023-09-12T12:15:50;12.93;;;4.57;;
48092;SDS011;33873;47.442;18.902;2023-09-12T12:18:19;12.32;;;4.53;;
48092;SDS011;33873;47.442;18.902;2023-09-12T12:20:46;9.68;;;4.35;;
48092;SDS011;33873;47.442;18.902;2023-09-12T12:23:14;10.98;;;4.90;;
48092;SDS011;33873;47.442;18.902;2023-09-12T12:25:42;10.73;;;4.47;;
48092;SDS011;33873;47.442;18.902;2023-09-12T12:28:09;11.07;;;4.57;;
48092;SDS011;33873;47.442;18.902;2023-09-12T12:30:37;11.35;;;4.60;;
48092;SDS011;33873;47.442;18.902;2023-09-12T12:33:08;12.30;;;4.45;;
48092;SDS011;33873;47.442;18.902;2023-09-12T12:36:03;9.38;;;4.32;;
48092;SDS011;33873;47.442;18.902;2023-09-12T12:38:38;12.20;;;5.18;;
48092;SDS011;33873;47.442;18.902;2023-09-12T12:41:22;18.27;;;4.60;;
48092;SDS011;33873;47.442;18.902;2023-09-12T12:43:52;13.27;;;3.95;;
48092;SDS011;33873;47.442;18.902;2023-09-12T12:46:21;10.50;;;4.32;;
48092;SDS011;33873;47.442;18.902;2023-09-12T12:48:49;17.95;;;5.03;;
48092;SDS011;33873;47.442;18.902;2023-09-12T12:51:20;12.07;;;4.95;;
48092;SDS011;33873;47.442;18.902;2023-09-12T12:53:54;9.70;;;4.35;;
48092;SDS011;33873;47.442;18.902;2023-09-12T12:56:23;15.38;;;5.85;;
48092;SDS011;33873;47.442;18.902;2023-09-12T12:58:58;12.32;;;4.20;;
48092;SDS011;33873;47.442;18.902;2023-09-12T13:01:29;12.82;;;5.15;;
48092;SDS011;33873;47.442;18.902;2023-09-12T13:03:57;15.00;;;4.97;;
48092;SDS011;33873;47.442;18.902;2023-09-12T13:06:25;16.73;;;5.12;;
48092;SDS011;33873;47.442;18.902;2023-09-12T13:08:55;11.95;;;4.53;;
48092;SDS011;33873;47.442;18.902;2023-09-12T13:11:24;14.63;;;5.37;;
48092;SDS011;33873;47.442;18.902;2023-09-12T13:13:52;10.80;;;4.50;;
48092;SDS011;33873;47.442;18.902;2023-09-12T13:16:20;11.02;;;4.22;;
48092;SDS011;33873;47.442;18.902;2023-09-12T13:18:48;11.88;;;5.05;;
48092;SDS011;33873;47.442;18.902;2023-09-12T13:21:16;15.65;;;5.10;;
48092;SDS011;33873;47.442;18.902;2023-09-12T13:23:44;18.05;;;5.10;;
48092;SDS011;33873;47.442;18.902;2023-09-12T13:26:12;11.90;;;3.97;;
48092;SDS011;33873;47.442;18.902;2023-09-12T13:28:40;12.85;;;4.53;;
48092;SDS011;33873;47.442;18.902;2023-09-12T13:31:08;13.62;;;5.18;;
48092;SDS011;33873;47.442;18.902;2023-09-12T13:33:35;15.43;;;4.70;;
48092;SDS011;33873;47.442;18.902;2023-09-12T13:36:03;10.70;;;4.15;;
48092;SDS011;33873;47.442;18.902;2023-09-12T13:38:31;15.50;;;4.72;;
48092;SDS011;33873;47.442;18.902;2023-09-12T13:40:59;13.60;;;4.57;;
48092;SDS011;33873;47.442;18.902;2023-09-12T13:43:26;14.38;;;4.40;;
48092;SDS011;33873;47.442;18.902;2023-09-12T13:45:55;14.13;;;5.25;;
48092;SDS011;33873;47.442;18.902;2023-09-12T13:48:23;18.37;;;4.78;;
48092;SDS011;33873;47.442;18.902;2023-09-12T13:50:51;15.63;;;4.93;;
48092;SDS011;33873;47.442;18.902;2023-09-12T13:53:19;13.80;;;4.90;;
48092;SDS011;33873;47.442;18.902;2023-09-12T13:55:46;11.38;;;5.05;;
48092;SDS011;33873;47.442;18.902;2023-09-12T13:58:34;14.52;;;4.90;;
48092;SDS011;33873;47.442;18.902;2023-09-12T14:01:13;12.50;;;4.85;;
48092;SDS011;33873;47.442;18.902;2023-09-12T14:03:54;18.65;;;4.32;;
48092;SDS011;33873;47.442;18.902;2023-09-12T14:06:23;11.45;;;4.87;;
48092;SDS011;33873;47.442;18.902;2023-09-12T14:08:52;11.73;;;5.47;;
48092;SDS011;33873;47.442;18.902;2023-09-12T14:11:21;16.27;;;5.03;;
48092;SDS011;33873;47.442;18.902;2023-09-12T14:14:01;16.80;;;4.80;;
48092;SDS011;33873;47.442;18.902;2023-09-12T14:16:35;15.40;;;4.87;;
48092;SDS011;33873;47.442;18.902;2023-09-12T14:19:02;13.38;;;4.55;;
48092;SDS011;33873;47.442;18.902;2023-09-12T14:21:30;17.83;;;5.32;;
48092;SDS011;33873;47.442;18.902;2023-09-12T14:23:59;14.02;;;5.47;;
48092;SDS011;33873;47.442;18.902;2023-09-12T14:26:28;14.50;;;4.62;;
48092;SDS011;33873;47.442;18.902;2023-09-12T14:28:56;9.98;;;4.03;;
48092;SDS011;33873;47.442;18.902;2023-09-12T14:31:24;18.20;;;5.32;;
48092;SDS011;33873;47.442;18.902;2023-09-12T14:33:52;12.60;;;5.07;;
48092;SDS011;33873;47.442;18.902;2023-09-12T14:36:19;14.70;;;5.37;;
48092;SDS011;33873;47.442;18.902;2023-09-12T14:38:47;16.08;;;5.12;;
48092;SDS011;33873;47.442;18.902;2023-09-12T14:41:15;11.75;;;4.07;;
48092;SDS011;33873;47.442;18.902;2023-09-12T14:43:43;17.67;;;4.90;;
48092;SDS011;33873;47.442;18.902;2023-09-12T14:46:11;17.62;;;5.32;;
48092;SDS011;33873;47.442;18.902;2023-09-12T14:48:39;14.40;;;4.30;;
48092;SDS011;33873;47.442;18.902;2023-09-12T14:51:19;16.62;;;4.90;;
48092;SDS011;33873;47.442;18.902;2023-09-12T14:53:56;16.65;;;4.70;;
48092;SDS011;33873;47.442;18.902;2023-09-12T14:56:24;12.43;;;4.72;;